createdAt,value
2019-03-26T00:01:59.319Z,5.30
2019-03-26T00:04:29.503Z,5.30
2019-03-26T00:06:59.908Z,5.30
2019-03-26T00:09:31.329Z,5.40
2019-03-26T00:12:01.474Z,5.40
2019-03-26T00:14:33.129Z,5.30
2019-03-26T00:17:03.453Z,5.50
2019-03-26T00:19:33.876Z,5.40
2019-03-26T00:22:04.012Z,5.40
2019-03-26T00:24:34.582Z,5.40
2019-03-26T00:27:07.677Z,5.30
2019-03-26T00:29:37.176Z,5.30
2019-03-26T00:32:07.382Z,5.30
2019-03-26T00:34:37.882Z,5.40
2019-03-26T00:37:08.137Z,5.30
2019-03-26T00:39:38.580Z,5.40
2019-03-26T00:42:08.710Z,5.40
2019-03-26T00:44:39.173Z,5.40
2019-03-26T00:47:09.290Z,5.30
2019-03-26T00:49:39.599Z,5.20
2019-03-26T00:52:09.851Z,5.20
2019-03-26T00:54:41.192Z,5.10
2019-03-26T00:57:11.404Z,5.00
2019-03-26T00:59:41.808Z,5.00
2019-03-26T01:02:13.468Z,4.90
2019-03-26T01:04:43.949Z,4.80
2019-03-26T01:07:14.344Z,4.70
2019-03-26T01:09:44.973Z,4.70
2019-03-26T01:12:15.300Z,4.60
2019-03-26T01:14:45.880Z,4.50
2019-03-26T01:17:16.360Z,4.10
2019-03-26T01:19:46.415Z,4.20
2019-03-26T01:22:16.675Z,4.10
2019-03-26T01:24:47.234Z,4.30
2019-03-26T01:27:17.505Z,4.30
2019-03-26T01:29:48.010Z,4.40
2019-03-26T01:32:18.269Z,4.40
2019-03-26T01:34:48.931Z,4.50
2019-03-26T01:37:19.482Z,4.60
2019-03-26T01:39:49.865Z,4.60
2019-03-26T01:42:20.220Z,4.70
2019-03-26T01:44:50.984Z,4.70
2019-03-26T01:47:21.253Z,4.60
2019-03-26T01:49:51.374Z,4.50
2019-03-26T01:52:21.637Z,4.40
2019-03-26T01:54:52.402Z,4.30
2019-03-26T01:57:22.811Z,4.40
2019-03-26T01:59:54.825Z,4.50
2019-03-26T02:02:25.176Z,4.60
2019-03-26T02:05:00.254Z,4.60
2019-03-26T02:07:27.448Z,4.70
2019-03-26T02:09:57.645Z,4.70
2019-03-26T02:12:27.926Z,4.70
2019-03-26T02:14:58.071Z,4.60
2019-03-26T02:17:28.208Z,4.60
2019-03-26T02:19:59.180Z,4.50
2019-03-26T02:22:29.295Z,4.60
2019-03-26T02:24:59.647Z,4.60
2019-03-26T02:27:31.536Z,4.80
2019-03-26T02:30:01.802Z,4.80
2019-03-26T02:32:32.331Z,4.70
2019-03-26T02:35:16.966Z,4.70
2019-03-26T02:37:34.240Z,4.70
2019-03-26T02:40:04.472Z,4.80
2019-03-26T02:42:34.656Z,4.60
2019-03-26T02:45:06.059Z,4.50
2019-03-26T02:47:36.199Z,4.50
2019-03-26T02:50:08.915Z,4.60
2019-03-26T02:52:39.101Z,4.60
2019-03-26T02:55:09.422Z,4.50
2019-03-26T02:57:39.740Z,4.60
2019-03-26T03:00:10.682Z,4.60
2019-03-26T03:02:41.108Z,4.60
2019-03-26T03:05:11.875Z,4.70
2019-03-26T03:07:41.991Z,4.60
2019-03-26T03:10:12.852Z,4.50
2019-03-26T03:12:42.986Z,4.60
2019-03-26T03:15:13.355Z,4.50
2019-03-26T03:17:43.449Z,4.50
2019-03-26T03:20:13.949Z,4.50
2019-03-26T03:22:44.012Z,4.50
2019-03-26T03:25:14.410Z,4.50
2019-03-26T03:27:46.324Z,4.70
2019-03-26T03:30:17.097Z,4.70
2019-03-26T03:32:47.327Z,4.70
2019-03-26T03:35:17.504Z,4.70
2019-03-26T03:37:47.620Z,4.80
2019-03-26T03:40:18.021Z,4.80
2019-03-26T03:42:48.271Z,4.80
2019-03-26T03:45:27.756Z,4.60
2019-03-26T03:47:58.433Z,4.70
2019-03-26T03:50:30.848Z,4.70
2019-03-26T03:53:02.685Z,4.60
2019-03-26T03:55:33.946Z,4.50
2019-03-26T03:58:04.677Z,4.40
2019-03-26T04:00:37.502Z,4.40
2019-03-26T04:03:09.811Z,4.40
2019-03-26T04:05:40.327Z,4.50
2019-03-26T04:08:11.450Z,4.40
2019-03-26T04:10:41.654Z,4.40
2019-03-26T04:13:12.507Z,4.20
2019-03-26T04:15:42.739Z,4.20
2019-03-26T04:18:13.258Z,4.10
2019-03-26T04:20:43.466Z,3.90
2019-03-26T04:23:13.534Z,4.00
2019-03-26T04:25:44.016Z,4.00
2019-03-26T04:28:14.452Z,4.10
2019-03-26T04:30:44.933Z,4.10
2019-03-26T04:33:16.441Z,4.10
2019-03-26T04:35:46.649Z,4.00
2019-03-26T04:38:17.389Z,4.10
2019-03-26T04:40:47.675Z,4.10
2019-03-26T04:43:19.218Z,4.00
2019-03-26T04:45:49.799Z,4.00
2019-03-26T04:48:20.023Z,4.00
2019-03-26T04:50:50.239Z,4.00
2019-03-26T04:53:21.176Z,4.00
2019-03-26T04:55:51.405Z,4.00
2019-03-26T04:58:21.626Z,3.90
2019-03-26T05:00:52.196Z,3.90
2019-03-26T05:03:23.095Z,3.90
2019-03-26T05:05:54.656Z,4.00
2019-03-26T05:08:25.483Z,4.00
2019-03-26T05:10:56.052Z,4.10
2019-03-26T05:13:29.511Z,4.10
2019-03-26T05:15:59.781Z,4.20
2019-03-26T05:18:30.061Z,4.10
2019-03-26T05:21:00.428Z,4.20
2019-03-26T05:23:31.903Z,4.30
2019-03-26T05:26:02.480Z,4.30
2019-03-26T05:28:33.597Z,4.40
2019-03-26T05:31:04.047Z,4.40
2019-03-26T05:33:35.017Z,4.40
2019-03-26T05:36:06.945Z,4.40
2019-03-26T05:38:37.211Z,4.50
2019-03-26T05:41:10.404Z,4.60
2019-03-26T05:43:42.406Z,4.60
2019-03-26T05:46:12.720Z,4.70
2019-03-26T05:48:44.420Z,4.70
2019-03-26T05:51:14.704Z,4.80
2019-03-26T05:53:45.596Z,4.90
2019-03-26T05:56:16.143Z,4.90
2019-03-26T05:58:46.470Z,5.00
2019-03-26T06:01:16.896Z,5.10
2019-03-26T06:03:49.268Z,5.10
2019-03-26T06:06:19.591Z,5.20
2019-03-26T06:08:51.077Z,5.20
2019-03-26T06:11:21.370Z,5.20
2019-03-26T06:13:52.205Z,5.30
2019-03-26T06:16:22.773Z,5.30
2019-03-26T06:18:53.181Z,5.30
2019-03-26T06:21:24.627Z,5.40
2019-03-26T06:23:55.757Z,5.50
2019-03-26T06:26:26.541Z,5.60
2019-03-26T06:29:01.096Z,5.50
2019-03-26T06:31:30.148Z,5.50
2019-03-26T06:34:01.185Z,5.40
2019-03-26T06:36:31.964Z,5.50
2019-03-26T06:39:02.240Z,5.70
2019-03-26T06:41:33.805Z,5.80
2019-03-26T06:44:04.845Z,5.90
2019-03-26T06:46:36.040Z,6.00
2019-03-26T06:49:06.558Z,6.10
2019-03-26T06:51:37.002Z,6.20
2019-03-26T06:54:07.778Z,6.20
2019-03-26T06:56:38.424Z,6.40
2019-03-26T06:59:09.010Z,6.50
2019-03-26T07:01:40.179Z,6.40
2019-03-26T07:04:10.658Z,6.40
2019-03-26T07:06:40.982Z,6.30
2019-03-26T07:09:11.951Z,6.30
2019-03-26T07:11:44.295Z,6.30
2019-03-26T07:14:17.677Z,6.30
2019-03-26T07:16:49.485Z,6.10
2019-03-26T07:19:19.891Z,6.30
2019-03-26T07:21:50.218Z,6.20
2019-03-26T07:24:22.682Z,6.30
2019-03-26T07:26:53.656Z,6.50
2019-03-26T07:29:24.699Z,6.50
2019-03-26T07:31:56.055Z,6.50
2019-03-26T07:34:26.887Z,6.60
2019-03-26T07:36:57.451Z,6.80
2019-03-26T07:39:28.420Z,6.90
2019-03-26T07:41:58.802Z,6.90
2019-03-26T07:44:29.674Z,7.20
2019-03-26T07:46:59.982Z,7.20
2019-03-26T07:49:30.469Z,7.30
2019-03-26T07:52:01.157Z,7.50
2019-03-26T07:54:32.691Z,7.40
2019-03-26T07:57:04.473Z,7.50
2019-03-26T07:59:34.782Z,7.60
2019-03-26T08:02:05.021Z,7.70
2019-03-26T08:04:35.959Z,7.70
2019-03-26T08:07:06.655Z,7.90
2019-03-26T08:09:37.259Z,8.00
2019-03-26T08:12:08.010Z,8.00
2019-03-26T08:14:38.618Z,8.00
2019-03-26T08:17:09.583Z,8.10
2019-03-26T08:19:39.775Z,8.20
2019-03-26T08:22:10.081Z,8.40
2019-03-26T08:24:40.381Z,8.60
2019-03-26T08:27:10.719Z,8.70
2019-03-26T08:29:41.434Z,8.80
2019-03-26T08:32:11.980Z,8.90
2019-03-26T08:34:42.771Z,9.20
2019-03-26T08:37:13.197Z,9.30
2019-03-26T08:39:43.762Z,9.50
2019-03-26T08:42:13.981Z,9.70
2019-03-26T08:44:44.239Z,10.00
2019-03-26T08:47:14.597Z,10.20
2019-03-26T08:49:44.911Z,10.60
2019-03-26T08:52:15.352Z,10.70
2019-03-26T08:54:46.823Z,11.10
2019-03-26T08:57:17.213Z,11.20
2019-03-26T08:59:47.651Z,11.40
2019-03-26T09:02:18.358Z,11.70
2019-03-26T09:04:49.461Z,11.80
2019-03-26T09:07:20.125Z,12.00
2019-03-26T09:09:50.987Z,12.30
2019-03-26T09:12:21.353Z,12.90
2019-03-26T09:14:51.692Z,13.40
2019-03-26T09:17:22.209Z,13.80
2019-03-26T09:19:53.483Z,14.00
2019-03-26T09:22:24.156Z,13.90
2019-03-26T09:24:54.508Z,14.20
2019-03-26T09:27:26.264Z,14.40
2019-03-26T09:29:56.816Z,14.80
2019-03-26T09:32:27.327Z,15.00
2019-03-26T09:34:57.504Z,15.00
2019-03-26T09:37:27.839Z,14.70
2019-03-26T09:39:58.049Z,14.50
2019-03-26T09:42:28.539Z,14.60
2019-03-26T09:44:59.288Z,14.80
2019-03-26T09:47:29.797Z,14.70
2019-03-26T09:50:00.440Z,14.80
2019-03-26T09:52:31.391Z,15.80
2019-03-26T09:55:01.763Z,16.30
2019-03-26T09:57:32.035Z,17.10
2019-03-26T10:00:02.376Z,17.90
2019-03-26T10:02:32.897Z,18.50
2019-03-26T10:05:03.147Z,18.80
2019-03-26T10:07:33.720Z,18.80
2019-03-26T10:10:04.556Z,18.20
2019-03-26T10:12:35.797Z,17.50
2019-03-26T10:15:06.552Z,16.40
2019-03-26T10:17:36.900Z,15.20
2019-03-26T10:20:08.102Z,14.60
2019-03-26T10:22:39.519Z,14.00
2019-03-26T10:25:11.569Z,13.60
2019-03-26T10:27:41.846Z,13.50
2019-03-26T10:30:14.543Z,14.20
2019-03-26T10:32:45.077Z,15.30
2019-03-26T10:35:17.764Z,17.10
2019-03-26T10:37:48.521Z,19.50
2019-03-26T10:40:30.330Z,21.70
2019-03-26T10:43:00.805Z,23.20
2019-03-26T10:45:32.570Z,24.50
2019-03-26T10:48:03.776Z,23.80
2019-03-26T10:50:34.741Z,23.80
2019-03-26T10:53:05.603Z,22.90
2019-03-26T10:55:35.893Z,22.00
2019-03-26T10:58:07.572Z,21.20
2019-03-26T11:00:37.910Z,20.00
2019-03-26T11:03:08.863Z,18.90
2019-03-26T11:05:39.155Z,18.10
2019-03-26T11:08:10.289Z,17.10
2019-03-26T11:10:40.652Z,16.40
2019-03-26T11:13:11.709Z,15.90
2019-03-26T11:15:42.260Z,15.30
2019-03-26T11:18:13.344Z,15.60
2019-03-26T11:20:43.894Z,16.00
2019-03-26T11:23:14.913Z,15.50
2019-03-26T11:25:45.478Z,15.00
2019-03-26T11:28:15.965Z,14.30
2019-03-26T11:30:46.373Z,13.80
2019-03-26T11:33:17.449Z,13.40
2019-03-26T11:35:47.666Z,13.20
2019-03-26T11:38:18.625Z,13.00
2019-03-26T11:40:49.375Z,12.70
2019-03-26T11:43:20.464Z,12.50
2019-03-26T11:45:51.316Z,12.40
2019-03-26T11:48:21.623Z,12.30
2019-03-26T11:50:52.108Z,12.40
2019-03-26T11:53:26.499Z,12.50
2019-03-26T11:55:57.875Z,12.80
2019-03-26T11:58:30.809Z,12.70
2019-03-26T12:01:01.439Z,12.60
2019-03-26T12:03:32.296Z,12.30
2019-03-26T12:06:03.437Z,12.30
2019-03-26T12:08:34.515Z,12.30
2019-03-26T12:11:05.444Z,12.40
2019-03-26T12:13:36.749Z,12.50
2019-03-26T12:16:07.322Z,12.50
2019-03-26T12:18:40.962Z,12.60
2019-03-26T12:21:11.442Z,12.70
2019-03-26T12:23:45.562Z,12.80
2019-03-26T12:26:16.672Z,12.90
2019-03-26T12:28:46.788Z,12.70
2019-03-26T12:31:17.396Z,12.50
2019-03-26T12:33:48.508Z,12.00
2019-03-26T12:36:19.721Z,11.90
2019-03-26T12:38:51.063Z,11.80
2019-03-26T12:41:22.094Z,11.60
2019-03-26T12:43:53.421Z,11.70
2019-03-26T12:46:24.352Z,11.60
2019-03-26T12:48:56.294Z,11.50
2019-03-26T12:51:27.055Z,11.50
2019-03-26T12:53:58.117Z,11.50
2019-03-26T12:56:29.138Z,11.60
2019-03-26T12:59:00.055Z,11.70
2019-03-26T13:01:30.402Z,11.70
2019-03-26T13:04:12.006Z,11.70
2019-03-26T13:06:33.234Z,11.70
2019-03-26T13:09:04.429Z,11.80
2019-03-26T13:11:34.723Z,11.70
2019-03-26T13:14:05.876Z,11.80
2019-03-26T13:16:37.029Z,11.70
2019-03-26T13:19:08.276Z,11.70
2019-03-26T13:21:38.701Z,11.70
2019-03-26T13:24:11.410Z,11.80
2019-03-26T13:26:41.701Z,11.70
2019-03-26T13:29:11.947Z,11.70
2019-03-26T13:31:43.168Z,11.60
2019-03-26T13:34:13.795Z,11.50
2019-03-26T13:36:44.701Z,11.60
2019-03-26T13:39:14.919Z,11.40
2019-03-26T13:41:45.227Z,11.40
2019-03-26T13:44:15.502Z,11.40
2019-03-26T13:46:46.340Z,11.30
2019-03-26T13:49:17.282Z,11.30
2019-03-26T13:51:47.650Z,11.30
2019-03-26T13:54:18.704Z,11.30
2019-03-26T13:56:49.841Z,11.40
2019-03-26T13:59:20.563Z,11.50
2019-03-26T14:01:51.534Z,11.40
2019-03-26T14:04:22.098Z,11.30
2019-03-26T14:06:53.457Z,11.00
2019-03-26T14:09:27.051Z,11.10
2019-03-26T14:11:57.767Z,11.10
2019-03-26T14:14:28.791Z,11.10
2019-03-26T14:16:59.646Z,11.10
2019-03-26T14:19:33.523Z,11.10
2019-03-26T14:22:05.486Z,11.00
2019-03-26T14:24:35.682Z,11.00
2019-03-26T14:27:06.326Z,10.90
2019-03-26T14:29:36.603Z,10.80
2019-03-26T14:32:08.049Z,10.60
2019-03-26T14:34:39.433Z,10.60
2019-03-26T14:37:10.267Z,10.60
2019-03-26T14:39:41.123Z,10.60
2019-03-26T14:42:12.306Z,10.60
2019-03-26T14:44:42.963Z,10.70
2019-03-26T14:47:14.121Z,10.60
2019-03-26T14:49:47.522Z,10.60
2019-03-26T14:52:17.751Z,10.60
2019-03-26T14:54:48.437Z,10.40
2019-03-26T14:57:19.387Z,10.50
2019-03-26T14:59:50.620Z,10.30
2019-03-26T15:02:21.057Z,10.30
2019-03-26T15:04:52.029Z,10.30
2019-03-26T15:07:22.671Z,10.30
2019-03-26T15:09:53.298Z,10.20
2019-03-26T15:12:23.976Z,10.20
2019-03-26T15:14:54.488Z,10.30
2019-03-26T15:17:25.565Z,10.40
2019-03-26T15:19:55.783Z,10.50
2019-03-26T15:22:26.463Z,10.60
2019-03-26T15:24:59.346Z,10.70
2019-03-26T15:27:29.721Z,10.90
2019-03-26T15:30:00.032Z,10.90
2019-03-26T15:32:31.133Z,10.90
2019-03-26T15:35:03.612Z,10.90
2019-03-26T15:37:34.919Z,10.90
2019-03-26T15:40:06.207Z,10.90
2019-03-26T15:42:36.944Z,10.90
2019-03-26T15:45:09.741Z,10.90
2019-03-26T15:47:40.655Z,10.90
2019-03-26T15:50:15.905Z,10.70
2019-03-26T15:52:46.926Z,10.80
2019-03-26T15:55:17.914Z,10.80
2019-03-26T15:57:48.660Z,10.80
2019-03-26T16:00:22.673Z,10.80
2019-03-26T16:02:53.608Z,10.70
2019-03-26T16:05:23.982Z,10.60
2019-03-26T16:07:54.798Z,10.70
2019-03-26T16:10:25.216Z,10.60
2019-03-26T16:12:55.736Z,10.60
2019-03-26T16:15:29.316Z,10.50
2019-03-26T16:18:05.694Z,10.50
2019-03-26T16:20:36.547Z,10.40
2019-03-26T16:23:08.582Z,10.30
2019-03-26T16:25:39.431Z,10.20
2019-03-26T16:28:11.310Z,10.10
2019-03-26T16:30:41.486Z,10.10
2019-03-26T16:33:12.668Z,9.90
2019-03-26T16:35:43.100Z,9.80
2019-03-26T16:38:13.999Z,9.80
2019-03-26T16:40:44.488Z,9.80
2019-03-26T16:43:15.577Z,9.80
2019-03-26T16:45:45.957Z,9.70
2019-03-26T16:48:16.275Z,9.80
2019-03-26T16:50:47.018Z,9.80
2019-03-26T16:53:17.499Z,9.80
2019-03-26T16:55:47.805Z,9.80
2019-03-26T16:58:18.043Z,9.70
2019-03-26T17:00:48.948Z,9.70
2019-03-26T17:03:30.748Z,9.70
2019-03-26T17:05:52.250Z,9.70
2019-03-26T17:08:22.826Z,9.50
2019-03-26T17:10:53.532Z,9.50
2019-03-26T17:13:25.426Z,9.30
2019-03-26T17:15:55.840Z,9.10
2019-03-26T17:18:26.803Z,9.10
2019-03-26T17:20:57.283Z,9.00
2019-03-26T17:23:27.756Z,8.90
2019-03-26T17:25:57.953Z,8.90
2019-03-26T17:28:28.302Z,8.80
2019-03-26T17:30:58.833Z,8.90
2019-03-26T17:33:31.808Z,8.90
2019-03-26T17:36:02.054Z,8.80
2019-03-26T17:38:33.760Z,8.80
2019-03-26T17:41:04.686Z,8.70
2019-03-26T17:43:37.044Z,8.70
2019-03-26T17:46:07.775Z,8.60
2019-03-26T17:48:38.070Z,8.60
2019-03-26T17:51:08.595Z,8.50
2019-03-26T17:53:39.993Z,8.50
2019-03-26T17:56:10.409Z,8.40
2019-03-26T17:58:43.099Z,8.50
2019-03-26T18:01:13.672Z,8.50
2019-03-26T18:03:44.542Z,8.50
2019-03-26T18:06:14.985Z,8.50
2019-03-26T18:08:45.215Z,8.50
2019-03-26T18:11:15.501Z,8.50
2019-03-26T18:13:49.607Z,8.50
2019-03-26T18:16:19.992Z,8.40
2019-03-26T18:18:50.657Z,8.40
2019-03-26T18:21:20.992Z,8.40
2019-03-26T18:23:51.816Z,8.50
2019-03-26T18:26:22.039Z,8.50
2019-03-26T18:28:55.357Z,8.50
2019-03-26T18:31:24.949Z,8.50
2019-03-26T18:33:56.796Z,8.50
2019-03-26T18:36:27.136Z,8.50
2019-03-26T18:38:58.088Z,8.60
2019-03-26T18:41:29.008Z,8.60
2019-03-26T18:43:59.903Z,8.60
2019-03-26T18:46:30.344Z,8.70
2019-03-26T18:49:01.416Z,8.60
2019-03-26T18:54:10.728Z,8.50
2019-03-26T18:56:47.099Z,8.50
2019-03-26T18:59:18.360Z,8.50
2019-03-26T19:01:54.747Z,8.50
2019-03-26T19:04:30.585Z,8.50
2019-03-26T19:07:02.635Z,8.50
2019-03-26T19:09:37.393Z,8.50
2019-03-26T19:12:12.235Z,8.40
2019-03-26T19:14:47.559Z,8.50
2019-03-26T19:17:22.457Z,8.50
2019-03-26T19:19:58.351Z,8.50
2019-03-26T19:25:05.011Z,8.40
2019-03-26T19:27:38.461Z,8.40
2019-03-26T19:30:09.502Z,8.40
2019-03-26T19:32:41.033Z,8.50
2019-03-26T19:35:11.555Z,8.50
2019-03-26T19:37:41.732Z,8.50
2019-03-26T19:40:13.659Z,8.40
2019-03-26T19:42:45.396Z,8.50
2019-03-26T19:45:16.306Z,8.40
2019-03-26T19:47:46.916Z,8.50
2019-03-26T19:50:18.437Z,8.50
2019-03-26T19:52:50.286Z,8.50
2019-03-26T19:55:20.551Z,8.50
2019-03-26T19:57:51.246Z,8.50
2019-03-26T20:00:26.729Z,8.50
2019-03-26T20:02:56.204Z,8.50
2019-03-26T20:05:27.179Z,8.50
2019-03-26T20:07:57.600Z,8.60
2019-03-26T20:10:28.028Z,8.40
2019-03-26T20:12:58.456Z,8.60
2019-03-26T20:15:29.140Z,8.60
2019-03-26T20:18:00.091Z,8.60
2019-03-26T20:20:31.478Z,8.60
2019-03-26T20:23:02.893Z,8.50
2019-03-26T20:25:33.962Z,8.60
2019-03-26T20:28:07.378Z,8.60
2019-03-26T20:30:37.690Z,8.50
2019-03-26T20:33:11.154Z,8.40
2019-03-26T20:35:41.576Z,8.40
2019-03-26T20:38:12.733Z,8.20
2019-03-26T20:40:42.958Z,8.20
2019-03-26T20:43:13.892Z,8.10
2019-03-26T20:45:44.115Z,8.20
2019-03-26T20:48:18.872Z,8.10
2019-03-26T20:50:57.360Z,8.20
2019-03-26T20:53:28.507Z,8.10
2019-03-26T20:56:07.489Z,8.10
2019-03-26T20:58:38.554Z,8.10
2019-03-26T21:01:08.744Z,8.20
2019-03-26T21:03:39.121Z,8.20
2019-03-26T21:06:09.448Z,8.20
2019-03-26T21:08:42.665Z,8.20
2019-03-26T21:11:14.933Z,8.20
2019-03-26T21:13:50.584Z,8.10
2019-03-26T21:16:17.292Z,8.00
2019-03-26T21:18:48.284Z,8.10
2019-03-26T21:21:18.451Z,8.10
2019-03-26T21:23:49.431Z,8.10
2019-03-26T21:26:19.737Z,8.00
2019-03-26T21:28:50.096Z,8.00
2019-03-26T21:31:20.320Z,8.00
2019-03-26T21:33:51.321Z,8.00
2019-03-26T21:36:21.516Z,8.00
2019-03-26T21:38:52.454Z,7.90
2019-03-26T21:41:22.680Z,7.90
2019-03-26T21:44:03.662Z,8.00
2019-03-26T21:46:25.864Z,7.90
2019-03-26T21:48:56.210Z,7.90
2019-03-26T21:51:26.537Z,8.00
2019-03-26T21:53:57.541Z,7.90
2019-03-26T21:56:28.001Z,7.90
2019-03-26T21:58:59.048Z,7.90
2019-03-26T22:01:29.477Z,7.90
2019-03-26T22:03:59.909Z,7.90
2019-03-26T22:06:30.191Z,7.90
2019-03-26T22:09:01.223Z,7.90
2019-03-26T22:11:31.598Z,7.80
2019-03-26T22:14:02.288Z,7.90
2019-03-26T22:16:32.635Z,7.80
2019-03-26T22:19:03.534Z,7.80
2019-03-26T22:21:35.974Z,7.80
2019-03-26T22:24:08.562Z,7.80
2019-03-26T22:26:38.794Z,7.80
2019-03-26T22:29:09.485Z,7.80
2019-03-26T22:31:39.739Z,7.70
2019-03-26T22:34:10.744Z,7.70
2019-03-26T22:36:41.055Z,7.70
2019-03-26T22:39:11.474Z,7.70
2019-03-26T22:41:41.830Z,7.60
2019-03-26T22:44:13.060Z,7.50
2019-03-26T22:46:43.263Z,7.50
2019-03-26T22:49:13.512Z,7.40
2019-03-26T22:51:44.190Z,7.40
2019-03-26T22:54:14.370Z,7.40
2019-03-26T22:56:45.911Z,7.40
2019-03-26T22:59:16.143Z,7.50
2019-03-26T23:20:01.343Z,7.40
2019-03-26T23:22:31.611Z,7.50
2019-03-26T23:25:02.704Z,7.50
2019-03-26T23:27:32.930Z,7.50
2019-03-26T23:30:03.125Z,7.40
2019-03-26T23:32:33.590Z,7.40
2019-03-26T23:35:03.865Z,7.40
2019-03-26T23:37:34.439Z,7.30
2019-03-26T23:40:04.868Z,7.30
2019-03-26T23:42:35.317Z,7.30
2019-03-26T23:45:06.621Z,7.30
2019-03-26T23:47:36.927Z,7.10
2019-03-26T23:50:08.301Z,7.20
2019-03-26T23:52:38.562Z,7.10
2019-03-26T23:55:10.338Z,7.10
2019-03-26T23:57:40.610Z,7.00
